createdAt,value
2023-03-03T00:01:19.578Z,101113.50
2023-03-03T00:06:15.933Z,101117.91
2023-03-03T00:11:12.477Z,101105.56
2023-03-03T00:16:25.475Z,101100.56
2023-03-03T00:21:41.825Z,101099.59
2023-03-03T00:26:39.953Z,101100.44
2023-03-03T00:31:36.540Z,101105.91
2023-03-03T00:36:40.700Z,101092.88
2023-03-03T00:41:37.973Z,101096.50
2023-03-03T00:46:37.081Z,101105.25
2023-03-03T00:51:36.002Z,101089.22
2023-03-03T00:56:32.474Z,101085.94
2023-03-03T01:01:28.796Z,101083.28
2023-03-03T01:06:25.166Z,101093.75
2023-03-03T01:11:24.551Z,101091.34
2023-03-03T01:16:21.497Z,101088.53
2023-03-03T01:21:18.507Z,101092.03
2023-03-03T01:26:15.074Z,101093.69
2023-03-03T01:31:12.684Z,101089.56
2023-03-03T01:36:09.321Z,101084.19
2023-03-03T01:41:06.111Z,101082.50
2023-03-03T01:46:02.371Z,101086.91
2023-03-03T01:51:32.358Z,101080.06
2023-03-03T01:56:29.450Z,101092.25
2023-03-03T02:01:28.498Z,101093.91
2023-03-03T02:06:35.431Z,101086.16
2023-03-03T02:11:34.547Z,101087.75
2023-03-03T02:16:31.101Z,101089.66
2023-03-03T02:21:28.073Z,101089.94
2023-03-03T02:26:27.138Z,101086.47
2023-03-03T02:31:27.155Z,101087.34
2023-03-03T02:36:26.685Z,101093.53
2023-03-03T02:41:41.082Z,101099.59
2023-03-03T02:46:43.103Z,101090.09
2023-03-03T02:51:40.483Z,101090.09
2023-03-03T02:56:37.084Z,101096.09
2023-03-03T03:01:37.014Z,101102.28
2023-03-03T03:06:33.565Z,101098.00
2023-03-03T03:11:29.870Z,101092.66
2023-03-03T03:16:26.334Z,101090.09
2023-03-03T03:21:22.999Z,101087.53
2023-03-03T03:26:21.046Z,101102.59
2023-03-03T03:31:18.733Z,101093.09
2023-03-03T03:36:15.483Z,101108.13
2023-03-03T03:41:13.358Z,101092.13
2023-03-03T03:46:09.678Z,101092.09
2023-03-03T03:51:06.048Z,101105.81
2023-03-03T03:56:02.370Z,101108.13
2023-03-03T04:01:07.152Z,101100.19
2023-03-03T04:06:03.822Z,101088.94
2023-03-03T04:11:00.118Z,101107.28
2023-03-03T04:15:56.407Z,101104.97
2023-03-03T04:20:54.403Z,101117.28
2023-03-03T04:25:50.920Z,101106.81
2023-03-03T04:30:47.580Z,101110.50
2023-03-03T04:35:43.966Z,101100.75
2023-03-03T04:40:41.729Z,101099.81
2023-03-03T04:45:38.206Z,101106.00
2023-03-03T04:50:34.887Z,101104.25
2023-03-03T04:55:31.353Z,101112.94
2023-03-03T05:00:27.676Z,101108.47
2023-03-03T05:05:24.047Z,101110.13
2023-03-03T05:10:21.455Z,101113.69
2023-03-03T05:15:17.922Z,101127.84
2023-03-03T05:20:14.604Z,101129.06
2023-03-03T05:25:12.567Z,101129.78
2023-03-03T05:30:10.048Z,101129.06
2023-03-03T05:35:06.762Z,101133.38
2023-03-03T05:40:04.330Z,101135.97
2023-03-03T05:45:00.631Z,101137.91
2023-03-03T05:49:57.392Z,101149.34
2023-03-03T05:54:53.785Z,101145.25
2023-03-03T05:59:50.148Z,101153.16
2023-03-03T06:04:46.450Z,101148.00
2023-03-03T06:09:42.831Z,101152.41
2023-03-03T06:14:39.120Z,101154.31
2023-03-03T06:19:36.044Z,101163.97
2023-03-03T06:24:32.318Z,101164.00
2023-03-03T06:29:29.025Z,101165.50
2023-03-03T06:34:25.391Z,101170.78
2023-03-03T06:39:21.674Z,101182.88
2023-03-03T06:44:18.248Z,101215.53
2023-03-03T06:49:14.846Z,101213.66
2023-03-03T06:54:26.486Z,101220.53
2023-03-03T06:59:23.885Z,101220.63
2023-03-03T07:04:33.154Z,101217.91
2023-03-03T07:09:30.037Z,101223.69
2023-03-03T07:14:26.512Z,101224.25
2023-03-03T07:19:33.477Z,101235.63
2023-03-03T07:24:31.266Z,101238.78
2023-03-03T07:29:33.641Z,101241.69
2023-03-03T07:34:59.159Z,101237.31
2023-03-03T07:39:55.924Z,101253.47
2023-03-03T07:44:54.795Z,101242.34
2023-03-03T07:49:53.530Z,101251.06
2023-03-03T07:54:49.964Z,101253.75
2023-03-03T07:59:51.632Z,101253.28
2023-03-03T08:04:52.666Z,101248.75
2023-03-03T08:09:51.566Z,101246.78
2023-03-03T08:14:48.016Z,101244.94
2023-03-03T08:19:44.376Z,101241.91
2023-03-03T08:24:41.211Z,101253.13
2023-03-03T08:29:37.638Z,101247.97
2023-03-03T08:34:33.954Z,101251.09
2023-03-03T08:39:30.249Z,101255.59
2023-03-03T08:44:26.548Z,101246.75
2023-03-03T08:49:22.863Z,101249.78
2023-03-03T08:54:19.169Z,101242.66
2023-03-03T08:59:15.574Z,101238.13
2023-03-03T09:04:11.951Z,101247.06
2023-03-03T09:09:08.409Z,101248.22
2023-03-03T09:14:13.478Z,101260.34
2023-03-03T09:19:22.172Z,101252.16
2023-03-03T09:24:25.467Z,101250.72
2023-03-03T09:29:29.209Z,101259.41
2023-03-03T09:34:38.180Z,101267.25
2023-03-03T09:39:36.649Z,101274.09
2023-03-03T09:45:08.620Z,101271.69
2023-03-03T09:50:22.647Z,101266.06
2023-03-03T09:55:37.743Z,101264.44
2023-03-03T10:01:03.866Z,101283.84
2023-03-03T10:06:21.802Z,101276.66
2023-03-03T10:11:28.379Z,101280.97
2023-03-03T10:16:43.250Z,101287.38
2023-03-03T10:21:49.591Z,101288.34
2023-03-03T10:27:12.066Z,101292.13
2023-03-03T10:32:09.743Z,101286.41
2023-03-03T10:37:40.661Z,101299.53
2023-03-03T10:42:53.166Z,101296.44
2023-03-03T10:48:34.044Z,101304.09
2023-03-03T10:53:42.429Z,101293.22
2023-03-03T10:58:45.613Z,101283.06
2023-03-03T11:03:51.859Z,101287.91
2023-03-03T11:08:58.719Z,101297.81
2023-03-03T11:14:12.158Z,101293.03
2023-03-03T11:19:36.130Z,101294.34
2023-03-03T11:25:03.546Z,101280.66
2023-03-03T11:30:18.326Z,101284.91
2023-03-03T11:35:43.828Z,101285.56
2023-03-03T11:41:22.265Z,101276.63
2023-03-03T11:46:25.555Z,101270.66
2023-03-03T11:51:38.926Z,101273.38
2023-03-03T11:56:43.767Z,101270.03
2023-03-03T12:02:13.914Z,101265.44
2023-03-03T12:07:32.936Z,101253.84
2023-03-03T12:12:38.257Z,101245.19
2023-03-03T12:17:56.863Z,101234.50
2023-03-03T12:23:05.850Z,101236.50
2023-03-03T12:28:09.406Z,101225.50
2023-03-03T12:33:39.321Z,101228.84
2023-03-03T12:39:09.756Z,101225.03
2023-03-03T12:44:34.112Z,101211.75
2023-03-03T12:49:57.823Z,101214.41
2023-03-03T12:55:11.057Z,101208.84
2023-03-03T13:00:21.726Z,101200.97
2023-03-03T13:05:23.967Z,101206.72
2023-03-03T13:10:36.396Z,101191.47
2023-03-03T13:15:51.787Z,101198.13
2023-03-03T13:21:00.031Z,101194.63
2023-03-03T13:26:03.165Z,101192.81
2023-03-03T13:31:13.510Z,101175.84
2023-03-03T13:36:15.240Z,101185.16
2023-03-03T13:41:23.584Z,101183.53
2023-03-03T13:46:43.569Z,101177.94
2023-03-03T13:52:01.637Z,101171.66
2023-03-03T13:57:30.404Z,101170.03
2023-03-03T14:02:33.155Z,101166.53
2023-03-03T14:07:41.388Z,101163.94
2023-03-03T14:12:48.409Z,101165.66
2023-03-03T14:18:23.562Z,101160.88
2023-03-03T14:23:25.616Z,101159.56
2023-03-03T14:28:28.386Z,101156.69
2023-03-03T14:33:32.272Z,101150.13
2023-03-03T14:38:31.727Z,101150.88
2023-03-03T14:43:38.212Z,101151.31
2023-03-03T14:48:50.960Z,101151.22
2023-03-03T14:53:50.084Z,101141.03
2023-03-03T14:58:46.968Z,101133.22
2023-03-03T15:04:03.416Z,101134.06
2023-03-03T15:09:35.843Z,101133.59
2023-03-03T15:14:43.299Z,101135.75
2023-03-03T15:20:11.700Z,101131.13
2023-03-03T15:25:43.277Z,101122.44
2023-03-03T15:30:53.457Z,101112.69
2023-03-03T15:36:02.021Z,101113.88
2023-03-03T15:41:21.851Z,101115.44
2023-03-03T15:46:42.946Z,101108.94
2023-03-03T15:52:13.399Z,101103.34
2023-03-03T15:57:21.028Z,101106.81
2023-03-03T16:02:21.375Z,101096.16
2023-03-03T16:07:31.946Z,101096.94
2023-03-03T16:12:49.998Z,101107.28
2023-03-03T16:18:14.244Z,101102.91
2023-03-03T16:23:39.837Z,101105.69
2023-03-03T16:29:05.183Z,101111.91
2023-03-03T16:34:12.707Z,101106.34
2023-03-03T16:39:21.272Z,101109.13
2023-03-03T16:44:38.372Z,101109.47
2023-03-03T16:49:47.073Z,101109.06
2023-03-03T16:55:12.928Z,101113.22
2023-03-03T17:00:17.183Z,101126.81
2023-03-03T17:05:39.767Z,101114.13
2023-03-03T17:10:52.240Z,101121.53
2023-03-03T17:15:59.787Z,101116.28
2023-03-03T17:21:01.225Z,101118.63
2023-03-03T17:26:17.991Z,101123.31
2023-03-03T17:31:32.845Z,101127.84
2023-03-03T17:36:50.925Z,101126.16
2023-03-03T17:42:10.206Z,101118.88
2023-03-03T17:47:16.563Z,101131.09
2023-03-03T17:52:46.178Z,101128.56
2023-03-03T17:57:49.579Z,101144.72
2023-03-03T18:03:19.974Z,101137.94
2023-03-03T18:08:34.751Z,101140.47
2023-03-03T18:13:50.482Z,101141.59
2023-03-03T18:19:17.502Z,101142.47
2023-03-03T18:24:26.145Z,101146.75
2023-03-03T18:29:27.948Z,101153.06
2023-03-03T18:34:40.667Z,101155.53
2023-03-03T18:39:44.554Z,101168.06
2023-03-03T18:44:41.747Z,101167.97
2023-03-03T18:49:47.255Z,101167.00
2023-03-03T18:54:43.614Z,101164.84
2023-03-03T18:59:48.597Z,101166.66
2023-03-03T19:04:55.470Z,101169.81
2023-03-03T19:10:01.499Z,101168.22
2023-03-03T19:14:57.866Z,101167.88
2023-03-03T19:20:14.100Z,101169.91
2023-03-03T19:25:19.316Z,101166.16
2023-03-03T19:30:29.100Z,101165.06
2023-03-03T19:35:53.154Z,101162.97
2023-03-03T19:41:40.641Z,101171.31
2023-03-03T19:46:58.612Z,101176.78
2023-03-03T19:52:08.234Z,101165.19
2023-03-03T19:57:11.360Z,101174.63
2023-03-03T20:02:13.390Z,101173.00
2023-03-03T20:07:29.003Z,101163.38
2023-03-03T20:12:50.624Z,101157.47
2023-03-03T20:17:58.617Z,101166.28
2023-03-03T20:23:07.712Z,101163.16
2023-03-03T20:28:45.090Z,101159.34
2023-03-03T20:33:52.152Z,101166.13
2023-03-03T20:39:09.042Z,101161.09
2023-03-03T20:44:11.541Z,101153.84
2023-03-03T20:49:31.255Z,101162.59
2023-03-03T20:54:56.190Z,101146.22
2023-03-03T21:00:20.959Z,101153.19
2023-03-03T21:05:20.588Z,101150.34
2023-03-03T21:10:24.708Z,101149.56
2023-03-03T21:15:25.603Z,101157.47
2023-03-03T21:20:40.181Z,101159.34
2023-03-03T21:25:45.860Z,101157.59
2023-03-03T21:31:11.944Z,101156.84
2023-03-03T21:36:09.924Z,101158.75
2023-03-03T21:41:08.097Z,101153.41
2023-03-03T21:46:05.068Z,101157.63
2023-03-03T21:51:02.011Z,101154.06
2023-03-03T21:55:58.435Z,101150.16
2023-03-03T22:00:54.811Z,101155.84
2023-03-03T22:05:51.287Z,101151.09
2023-03-03T22:10:50.790Z,101142.25
2023-03-03T22:15:48.019Z,101132.25
2023-03-03T22:20:46.039Z,101132.25
2023-03-03T22:25:42.522Z,101129.47
2023-03-03T22:30:38.957Z,101131.59
2023-03-03T22:35:35.395Z,101136.13
2023-03-03T22:40:33.452Z,101135.94
2023-03-03T22:45:29.775Z,101132.38
2023-03-03T22:50:26.125Z,101122.78
2023-03-03T22:55:22.624Z,101120.38
2023-03-03T23:00:20.891Z,101129.16
2023-03-03T23:05:17.527Z,101116.59
2023-03-03T23:10:14.016Z,101116.75
2023-03-03T23:15:13.950Z,101116.84
2023-03-03T23:20:13.459Z,101116.00
2023-03-03T23:25:11.779Z,101110.81
2023-03-03T23:30:09.780Z,101109.97
2023-03-03T23:35:06.405Z,101105.16
2023-03-03T23:40:02.938Z,101106.50
2023-03-03T23:44:59.527Z,101110.41
2023-03-03T23:49:55.967Z,101107.38
2023-03-03T23:54:53.099Z,101099.56
2023-03-03T23:59:49.806Z,101106.84
